Airfield :
LOGIN :

Register | Disclaimer

   EN    FR    IT 

 










Legend :    VFR   Marginal VFR   IFR   Intensive IFR   Very Intensive IFR
Visi :
Ceiling :
>= 8 km
>= 3000ft
5 to 8 km
1000 to 3000 ft
1500m to 5 km
500 to 1000 ft
800 to 1500m
200 to 500 ft
< 800m
< 200 ft
Symbols :   Thunderstorms  Fog  Heavy snow  Heavy precipitations  Wind > 20 kt
SIGMETs :     Misc.  Thunderstorms  Icing  Turbulence  Mountain Waves  Volcanic Ashes







- Airport Elevation : 2356 ft


LZTT - Poprad Tatry

CURRENT METAR :
  • 232100Z 29006KT 9999 -RA FEW010 OVC040 07/05 Q1018

EXPIRED METARs :
  • 232030Z VRB02KT 9999 -RA FEW010 SCT021 OVC039 07/05 Q1018
  • 232000Z 36003KT 9999 -RA FEW010 SCT027 OVC033 07/05 Q1018
  • 231930Z 12003KT 080V150 9999 -RA FEW010 OVC033 07/05 Q1018
  • 231900Z VRB02KT 9999 -RA FEW010 OVC030 07/05 Q1018

TAF TAF LZTT
Valid from the 23 at 18:00 until the 24 at 18:00 UTC


231700Z 2318/2418 VRB02KT 9999 -RA SCT007 OVC040
TEMPO 2322/2408 4000 -RA BR BKN007 OVC020
PROB30
TEMPO 2322/2403 2800 RA
BECMG 2408/2410 14010KT
No reported NOTAMs for that airfield.



MET'MAP, your aeronautical weather chart ! - Copyright ORBIFLY December 2007 - Disclaimer

ORBIFLY MET'MAP TEAM :

Programming & Development : Alexandra Zaïnal
Concept & Development : Baudouin d'Aumeries
Co-Development & Prog : Marc-Olivier Méhu
Technical & hardware support : Manuel Goepfert

Contact : metmap@orbifly.com




SOURCES & CREDITS :

   NOAA